sensor_id;sensor_type;location;lat;lon;timestamp;P1;durP1;ratioP1;P2;durP2;ratioP2
28245;SDS011;15510;52.512;13.300;2023-10-13T00:01:49;5.05;;;1.88;;
28245;SDS011;15510;52.512;13.300;2023-10-13T00:04:17;2.28;;;1.40;;
28245;SDS011;15510;52.512;13.300;2023-10-13T00:06:59;6.38;;;1.90;;
28245;SDS011;15510;52.512;13.300;2023-10-13T00:09:29;4.32;;;1.63;;
28245;SDS011;15510;52.512;13.300;2023-10-13T00:12:08;3.00;;;1.45;;
28245;SDS011;15510;52.512;13.300;2023-10-13T00:14:40;5.63;;;1.73;;
28245;SDS011;15510;52.512;13.300;2023-10-13T00:17:09;3.58;;;2.00;;
28245;SDS011;15510;52.512;13.300;2023-10-13T00:19:45;3.70;;;2.00;;
28245;SDS011;15510;52.512;13.300;2023-10-13T00:22:17;5.18;;;1.92;;
28245;SDS011;15510;52.512;13.300;2023-10-13T00:24:45;5.90;;;1.40;;
28245;SDS011;15510;52.512;13.300;2023-10-13T00:27:12;3.60;;;1.50;;
28245;SDS011;15510;52.512;13.300;2023-10-13T00:30:10;3.70;;;1.58;;
28245;SDS011;15510;52.512;13.300;2023-10-13T00:32:54;3.22;;;2.17;;
28245;SDS011;15510;52.512;13.300;2023-10-13T00:35:23;5.93;;;2.30;;
28245;SDS011;15510;52.512;13.300;2023-10-13T00:38:02;3.65;;;2.50;;
28245;SDS011;15510;52.512;13.300;2023-10-13T00:40:30;5.22;;;2.35;;
28245;SDS011;15510;52.512;13.300;2023-10-13T00:43:00;4.63;;;2.28;;
28245;SDS011;15510;52.512;13.300;2023-10-13T00:45:45;4.78;;;1.92;;
28245;SDS011;15510;52.512;13.300;2023-10-13T00:48:20;3.05;;;2.13;;
28245;SDS011;15510;52.512;13.300;2023-10-13T00:50:52;4.45;;;2.15;;
28245;SDS011;15510;52.512;13.300;2023-10-13T00:53:23;3.35;;;1.90;;
28245;SDS011;15510;52.512;13.300;2023-10-13T00:55:51;4.50;;;1.98;;
28245;SDS011;15510;52.512;13.300;2023-10-13T00:58:17;2.78;;;1.80;;
28245;SDS011;15510;52.512;13.300;2023-10-13T01:00:48;3.35;;;1.90;;
28245;SDS011;15510;52.512;13.300;2023-10-13T01:03:21;2.95;;;1.60;;
28245;SDS011;15510;52.512;13.300;2023-10-13T01:05:51;4.05;;;1.90;;
28245;SDS011;15510;52.512;13.300;2023-10-13T01:08:30;4.45;;;1.80;;
28245;SDS011;15510;52.512;13.300;2023-10-13T01:11:00;4.57;;;2.17;;
28245;SDS011;15510;52.512;13.300;2023-10-13T01:13:26;3.15;;;2.20;;
28245;SDS011;15510;52.512;13.300;2023-10-13T01:15:55;3.20;;;2.00;;
28245;SDS011;15510;52.512;13.300;2023-10-13T01:18:22;5.65;;;2.05;;
28245;SDS011;15510;52.512;13.300;2023-10-13T01:20:51;3.58;;;2.17;;
28245;SDS011;15510;52.512;13.300;2023-10-13T01:23:46;4.80;;;2.20;;
28245;SDS011;15510;52.512;13.300;2023-10-13T01:26:14;7.07;;;2.90;;
28245;SDS011;15510;52.512;13.300;2023-10-13T01:28:50;4.85;;;2.78;;
28245;SDS011;15510;52.512;13.300;2023-10-13T01:31:17;6.35;;;2.45;;
28245;SDS011;15510;52.512;13.300;2023-10-13T01:33:58;5.05;;;3.17;;
28245;SDS011;15510;52.512;13.300;2023-10-13T01:36:27;3.90;;;3.17;;
28245;SDS011;15510;52.512;13.300;2023-10-13T01:38:54;4.30;;;3.08;;
28245;SDS011;15510;52.512;13.300;2023-10-13T01:41:26;3.83;;;2.58;;
28245;SDS011;15510;52.512;13.300;2023-10-13T01:43:52;4.32;;;3.60;;
28245;SDS011;15510;52.512;13.300;2023-10-13T01:46:27;5.35;;;2.80;;
28245;SDS011;15510;52.512;13.300;2023-10-13T01:48:53;7.22;;;3.85;;
28245;SDS011;15510;52.512;13.300;2023-10-13T01:51:19;6.13;;;3.45;;
28245;SDS011;15510;52.512;13.300;2023-10-13T01:53:51;6.95;;;3.47;;
28245;SDS011;15510;52.512;13.300;2023-10-13T01:56:22;5.53;;;3.70;;
28245;SDS011;15510;52.512;13.300;2023-10-13T01:58:53;8.35;;;3.97;;
28245;SDS011;15510;52.512;13.300;2023-10-13T02:01:25;4.88;;;4.07;;
28245;SDS011;15510;52.512;13.300;2023-10-13T02:04:01;5.47;;;3.63;;
28245;SDS011;15510;52.512;13.300;2023-10-13T02:06:32;8.00;;;4.22;;
28245;SDS011;15510;52.512;13.300;2023-10-13T02:09:02;6.88;;;4.25;;
28245;SDS011;15510;52.512;13.300;2023-10-13T02:11:38;6.88;;;4.78;;
28245;SDS011;15510;52.512;13.300;2023-10-13T02:14:08;5.72;;;4.72;;
28245;SDS011;15510;52.512;13.300;2023-10-13T02:16:37;7.35;;;4.93;;
28245;SDS011;15510;52.512;13.300;2023-10-13T02:19:03;8.13;;;5.30;;
28245;SDS011;15510;52.512;13.300;2023-10-13T02:21:33;8.60;;;5.10;;
28245;SDS011;15510;52.512;13.300;2023-10-13T02:24:07;6.05;;;5.25;;
28245;SDS011;15510;52.512;13.300;2023-10-13T02:26:45;8.50;;;5.13;;
28245;SDS011;15510;52.512;13.300;2023-10-13T02:29:11;8.48;;;5.05;;
28245;SDS011;15510;52.512;13.300;2023-10-13T02:31:40;8.40;;;5.18;;
28245;SDS011;15510;52.512;13.300;2023-10-13T02:34:08;6.30;;;4.90;;
28245;SDS011;15510;52.512;13.300;2023-10-13T02:36:37;6.95;;;4.97;;
28245;SDS011;15510;52.512;13.300;2023-10-13T02:39:17;6.85;;;5.18;;
28245;SDS011;15510;52.512;13.300;2023-10-13T02:41:53;7.95;;;5.40;;
28245;SDS011;15510;52.512;13.300;2023-10-13T02:44:20;8.27;;;5.20;;
28245;SDS011;15510;52.512;13.300;2023-10-13T02:46:56;8.25;;;5.88;;
28245;SDS011;15510;52.512;13.300;2023-10-13T02:49:25;11.20;;;5.57;;
28245;SDS011;15510;52.512;13.300;2023-10-13T02:51:54;8.15;;;5.75;;
28245;SDS011;15510;52.512;13.300;2023-10-13T02:54:35;8.70;;;5.55;;
28245;SDS011;15510;52.512;13.300;2023-10-13T02:57:22;11.63;;;6.10;;
28245;SDS011;15510;52.512;13.300;2023-10-13T02:59:49;9.13;;;6.30;;
28245;SDS011;15510;52.512;13.300;2023-10-13T03:02:23;8.60;;;5.97;;
28245;SDS011;15510;52.512;13.300;2023-10-13T03:04:54;13.30;;;6.32;;
28245;SDS011;15510;52.512;13.300;2023-10-13T03:07:53;8.05;;;5.85;;
28245;SDS011;15510;52.512;13.300;2023-10-13T03:10:22;9.38;;;6.35;;
28245;SDS011;15510;52.512;13.300;2023-10-13T03:12:54;8.80;;;6.18;;
28245;SDS011;15510;52.512;13.300;2023-10-13T03:15:27;12.43;;;6.20;;
28245;SDS011;15510;52.512;13.300;2023-10-13T03:17:56;8.70;;;6.00;;
28245;SDS011;15510;52.512;13.300;2023-10-13T03:20:25;10.93;;;6.70;;
28245;SDS011;15510;52.512;13.300;2023-10-13T03:22:57;10.10;;;6.10;;
28245;SDS011;15510;52.512;13.300;2023-10-13T03:25:24;9.75;;;6.40;;
28245;SDS011;15510;52.512;13.300;2023-10-13T03:28:02;10.48;;;6.35;;
28245;SDS011;15510;52.512;13.300;2023-10-13T03:30:32;13.40;;;7.10;;
28245;SDS011;15510;52.512;13.300;2023-10-13T03:33:07;8.88;;;6.63;;
28245;SDS011;15510;52.512;13.300;2023-10-13T03:35:41;10.13;;;5.80;;
28245;SDS011;15510;52.512;13.300;2023-10-13T03:38:07;12.07;;;6.95;;
28245;SDS011;15510;52.512;13.300;2023-10-13T03:40:44;9.35;;;5.80;;
28245;SDS011;15510;52.512;13.300;2023-10-13T03:43:34;11.40;;;6.68;;
28245;SDS011;15510;52.512;13.300;2023-10-13T03:46:10;12.70;;;6.93;;
28245;SDS011;15510;52.512;13.300;2023-10-13T03:48:36;12.27;;;6.50;;
28245;SDS011;15510;52.512;13.300;2023-10-13T03:51:17;13.13;;;7.18;;
28245;SDS011;15510;52.512;13.300;2023-10-13T03:53:46;12.32;;;7.63;;
28245;SDS011;15510;52.512;13.300;2023-10-13T03:56:18;12.48;;;7.93;;
28245;SDS011;15510;52.512;13.300;2023-10-13T03:58:52;13.07;;;8.68;;
28245;SDS011;15510;52.512;13.300;2023-10-13T04:01:20;14.23;;;8.18;;
28245;SDS011;15510;52.512;13.300;2023-10-13T04:03:57;15.00;;;7.93;;
28245;SDS011;15510;52.512;13.300;2023-10-13T04:06:34;14.52;;;7.85;;
28245;SDS011;15510;52.512;13.300;2023-10-13T04:11:59;13.85;;;7.38;;
28245;SDS011;15510;52.512;13.300;2023-10-13T04:14:29;13.38;;;7.00;;
28245;SDS011;15510;52.512;13.300;2023-10-13T04:17:24;13.07;;;7.30;;
28245;SDS011;15510;52.512;13.300;2023-10-13T04:19:56;16.35;;;7.82;;
28245;SDS011;15510;52.512;13.300;2023-10-13T04:22:36;14.45;;;8.02;;
28245;SDS011;15510;52.512;13.300;2023-10-13T04:25:21;11.75;;;8.10;;
28245;SDS011;15510;52.512;13.300;2023-10-13T04:28:06;13.00;;;8.00;;
28245;SDS011;15510;52.512;13.300;2023-10-13T04:33:30;18.80;;;8.38;;
28245;SDS011;15510;52.512;13.300;2023-10-13T04:36:06;10.88;;;7.53;;
28245;SDS011;15510;52.512;13.300;2023-10-13T04:38:45;13.40;;;8.60;;
28245;SDS011;15510;52.512;13.300;2023-10-13T04:41:24;12.73;;;8.43;;
28245;SDS011;15510;52.512;13.300;2023-10-13T04:43:59;19.33;;;8.75;;
28245;SDS011;15510;52.512;13.300;2023-10-13T04:46:51;13.60;;;9.07;;
28245;SDS011;15510;52.512;13.300;2023-10-13T04:49:24;13.05;;;8.70;;
28245;SDS011;15510;52.512;13.300;2023-10-13T04:52:03;14.32;;;8.50;;
28245;SDS011;15510;52.512;13.300;2023-10-13T04:55:01;16.95;;;8.75;;
28245;SDS011;15510;52.512;13.300;2023-10-13T04:57:49;17.30;;;9.75;;
28245;SDS011;15510;52.512;13.300;2023-10-13T05:00:25;16.42;;;10.18;;
28245;SDS011;15510;52.512;13.300;2023-10-13T05:03:10;12.73;;;8.65;;
28245;SDS011;15510;52.512;13.300;2023-10-13T05:05:54;12.65;;;8.43;;
28245;SDS011;15510;52.512;13.300;2023-10-13T05:08:38;12.68;;;8.25;;
28245;SDS011;15510;52.512;13.300;2023-10-13T05:11:23;16.15;;;8.35;;
28245;SDS011;15510;52.512;13.300;2023-10-13T05:14:16;15.77;;;8.60;;
28245;SDS011;15510;52.512;13.300;2023-10-13T05:17:00;14.20;;;8.63;;
28245;SDS011;15510;52.512;13.300;2023-10-13T05:19:47;11.48;;;8.15;;
28245;SDS011;15510;52.512;13.300;2023-10-13T05:22:31;11.80;;;8.57;;
28245;SDS011;15510;52.512;13.300;2023-10-13T05:25:15;10.60;;;8.43;;
28245;SDS011;15510;52.512;13.300;2023-10-13T05:28:02;13.77;;;8.90;;
28245;SDS011;15510;52.512;13.300;2023-10-13T05:30:53;17.95;;;9.15;;
28245;SDS011;15510;52.512;13.300;2023-10-13T05:33:37;10.88;;;8.50;;
28245;SDS011;15510;52.512;13.300;2023-10-13T05:36:22;13.57;;;9.15;;
28245;SDS011;15510;52.512;13.300;2023-10-13T05:39:06;17.27;;;8.63;;
28245;SDS011;15510;52.512;13.300;2023-10-13T05:41:51;10.15;;;7.95;;
28245;SDS011;15510;52.512;13.300;2023-10-13T05:44:35;15.82;;;8.43;;
28245;SDS011;15510;52.512;13.300;2023-10-13T05:47:21;13.50;;;8.30;;
28245;SDS011;15510;52.512;13.300;2023-10-13T05:50:08;12.50;;;8.65;;
28245;SDS011;15510;52.512;13.300;2023-10-13T05:52:58;14.25;;;10.48;;
28245;SDS011;15510;52.512;13.300;2023-10-13T05:55:27;12.63;;;9.10;;
28245;SDS011;15510;52.512;13.300;2023-10-13T05:58:12;14.05;;;8.93;;
28245;SDS011;15510;52.512;13.300;2023-10-13T06:01:16;17.02;;;9.10;;
28245;SDS011;15510;52.512;13.300;2023-10-13T06:04:01;13.55;;;8.68;;
28245;SDS011;15510;52.512;13.300;2023-10-13T06:06:45;11.27;;;7.68;;
28245;SDS011;15510;52.512;13.300;2023-10-13T06:09:30;14.45;;;8.38;;
28245;SDS011;15510;52.512;13.300;2023-10-13T06:12:14;13.70;;;9.30;;
28245;SDS011;15510;52.512;13.300;2023-10-13T06:14:58;13.00;;;9.73;;
28245;SDS011;15510;52.512;13.300;2023-10-13T06:17:42;13.80;;;8.48;;
28245;SDS011;15510;52.512;13.300;2023-10-13T06:20:27;10.32;;;7.50;;
28245;SDS011;15510;52.512;13.300;2023-10-13T06:23:11;11.73;;;7.68;;
28245;SDS011;15510;52.512;13.300;2023-10-13T06:25:56;15.43;;;8.60;;
28245;SDS011;15510;52.512;13.300;2023-10-13T06:28:40;9.68;;;7.35;;
28245;SDS011;15510;52.512;13.300;2023-10-13T06:31:09;9.93;;;7.13;;
28245;SDS011;15510;52.512;13.300;2023-10-13T06:33:40;13.57;;;7.85;;
28245;SDS011;15510;52.512;13.300;2023-10-13T06:36:12;12.52;;;7.10;;
28245;SDS011;15510;52.512;13.300;2023-10-13T06:38:38;9.95;;;7.63;;
28245;SDS011;15510;52.512;13.300;2023-10-13T06:41:07;16.00;;;8.38;;
28245;SDS011;15510;52.512;13.300;2023-10-13T06:43:45;12.43;;;8.27;;
28245;SDS011;15510;52.512;13.300;2023-10-13T06:46:10;11.25;;;8.10;;
28245;SDS011;15510;52.512;13.300;2023-10-13T06:48:41;14.27;;;7.35;;
28245;SDS011;15510;52.512;13.300;2023-10-13T06:51:08;11.13;;;7.32;;
28245;SDS011;15510;52.512;13.300;2023-10-13T06:53:44;8.82;;;6.95;;
28245;SDS011;15510;52.512;13.300;2023-10-13T06:56:13;12.32;;;8.05;;
28245;SDS011;15510;52.512;13.300;2023-10-13T06:58:50;14.80;;;7.63;;
28245;SDS011;15510;52.512;13.300;2023-10-13T07:01:16;11.45;;;7.90;;
28245;SDS011;15510;52.512;13.300;2023-10-13T07:03:47;10.65;;;7.60;;
28245;SDS011;15510;52.512;13.300;2023-10-13T07:06:18;10.30;;;7.40;;
28245;SDS011;15510;52.512;13.300;2023-10-13T07:08:47;13.02;;;7.95;;
28245;SDS011;15510;52.512;13.300;2023-10-13T07:11:25;9.10;;;7.18;;
28245;SDS011;15510;52.512;13.300;2023-10-13T07:14:10;9.63;;;6.57;;
28245;SDS011;15510;52.512;13.300;2023-10-13T07:17:01;10.57;;;6.82;;
28245;SDS011;15510;52.512;13.300;2023-10-13T07:19:55;8.38;;;6.55;;
28245;SDS011;15510;52.512;13.300;2023-10-13T07:22:39;12.55;;;6.72;;
28245;SDS011;15510;52.512;13.300;2023-10-13T07:25:22;9.77;;;6.80;;
28245;SDS011;15510;52.512;13.300;2023-10-13T07:27:51;9.20;;;6.57;;
28245;SDS011;15510;52.512;13.300;2023-10-13T07:30:19;10.73;;;6.28;;
28245;SDS011;15510;52.512;13.300;2023-10-13T07:32:54;10.45;;;6.85;;
28245;SDS011;15510;52.512;13.300;2023-10-13T07:35:24;9.75;;;6.18;;
28245;SDS011;15510;52.512;13.300;2023-10-13T07:37:56;8.65;;;6.40;;
28245;SDS011;15510;52.512;13.300;2023-10-13T07:40:25;10.77;;;6.40;;
28245;SDS011;15510;52.512;13.300;2023-10-13T07:42:52;11.48;;;6.03;;
28245;SDS011;15510;52.512;13.300;2023-10-13T07:45:29;8.15;;;5.25;;
28245;SDS011;15510;52.512;13.300;2023-10-13T07:48:02;7.32;;;5.82;;
28245;SDS011;15510;52.512;13.300;2023-10-13T07:50:44;9.35;;;5.75;;
28245;SDS011;15510;52.512;13.300;2023-10-13T07:53:11;10.45;;;5.57;;
28245;SDS011;15510;52.512;13.300;2023-10-13T07:55:52;7.25;;;5.50;;
28245;SDS011;15510;52.512;13.300;2023-10-13T07:58:21;7.85;;;5.03;;
28245;SDS011;15510;52.512;13.300;2023-10-13T08:00:50;6.85;;;4.95;;
28245;SDS011;15510;52.512;13.300;2023-10-13T08:03:32;7.40;;;4.60;;
28245;SDS011;15510;52.512;13.300;2023-10-13T08:06:15;7.82;;;5.05;;
28245;SDS011;15510;52.512;13.300;2023-10-13T08:08:42;13.93;;;4.97;;
28245;SDS011;15510;52.512;13.300;2023-10-13T08:11:09;10.85;;;5.22;;
28245;SDS011;15510;52.512;13.300;2023-10-13T08:13:48;6.82;;;4.70;;
28245;SDS011;15510;52.512;13.300;2023-10-13T08:16:22;6.63;;;5.03;;
28245;SDS011;15510;52.512;13.300;2023-10-13T08:18:53;9.55;;;5.80;;
28245;SDS011;15510;52.512;13.300;2023-10-13T08:21:19;6.20;;;4.90;;
28245;SDS011;15510;52.512;13.300;2023-10-13T08:23:49;7.43;;;4.80;;
28245;SDS011;15510;52.512;13.300;2023-10-13T08:26:19;8.27;;;5.07;;
28245;SDS011;15510;52.512;13.300;2023-10-13T08:28:58;7.55;;;4.05;;
28245;SDS011;15510;52.512;13.300;2023-10-13T08:31:48;4.72;;;3.97;;
28245;SDS011;15510;52.512;13.300;2023-10-13T08:34:42;5.15;;;4.22;;
28245;SDS011;15510;52.512;13.300;2023-10-13T08:37:08;5.68;;;4.07;;
28245;SDS011;15510;52.512;13.300;2023-10-13T08:39:56;6.72;;;4.32;;
28245;SDS011;15510;52.512;13.300;2023-10-13T08:42:30;6.72;;;4.30;;
28245;SDS011;15510;52.512;13.300;2023-10-13T08:45:15;6.43;;;4.10;;
28245;SDS011;15510;52.512;13.300;2023-10-13T08:47:48;4.88;;;4.03;;
28245;SDS011;15510;52.512;13.300;2023-10-13T08:50:34;9.27;;;4.30;;
28245;SDS011;15510;52.512;13.300;2023-10-13T08:53:27;7.10;;;4.40;;
28245;SDS011;15510;52.512;13.300;2023-10-13T08:56:03;6.10;;;3.95;;
28245;SDS011;15510;52.512;13.300;2023-10-13T08:58:45;5.55;;;4.15;;
28245;SDS011;15510;52.512;13.300;2023-10-13T09:01:26;6.07;;;4.15;;
28245;SDS011;15510;52.512;13.300;2023-10-13T09:04:00;7.30;;;4.80;;
28245;SDS011;15510;52.512;13.300;2023-10-13T09:14:56;7.88;;;4.18;;
28245;SDS011;15510;52.512;13.300;2023-10-13T09:17:24;5.13;;;3.95;;
28245;SDS011;15510;52.512;13.300;2023-10-13T09:20:07;9.27;;;4.45;;
28245;SDS011;15510;52.512;13.300;2023-10-13T09:22:53;11.45;;;4.65;;
28245;SDS011;15510;52.512;13.300;2023-10-13T09:25:39;6.47;;;4.50;;
28245;SDS011;15510;52.512;13.300;2023-10-13T09:28:21;5.35;;;4.50;;
28245;SDS011;15510;52.512;13.300;2023-10-13T09:30:48;6.55;;;4.18;;
28245;SDS011;15510;52.512;13.300;2023-10-13T09:33:22;6.93;;;4.43;;
28245;SDS011;15510;52.512;13.300;2023-10-13T09:36:04;4.18;;;3.60;;
28245;SDS011;15510;52.512;13.300;2023-10-13T09:38:38;10.20;;;5.38;;
28245;SDS011;15510;52.512;13.300;2023-10-13T09:41:13;6.65;;;4.57;;
28245;SDS011;15510;52.512;13.300;2023-10-13T09:43:51;5.43;;;4.07;;
28245;SDS011;15510;52.512;13.300;2023-10-13T09:46:19;6.55;;;4.20;;
28245;SDS011;15510;52.512;13.300;2023-10-13T09:48:48;6.45;;;3.78;;
28245;SDS011;15510;52.512;13.300;2023-10-13T09:51:32;9.93;;;4.57;;
28245;SDS011;15510;52.512;13.300;2023-10-13T09:56:50;6.60;;;4.38;;
28245;SDS011;15510;52.512;13.300;2023-10-13T09:59:19;7.43;;;4.35;;
28245;SDS011;15510;52.512;13.300;2023-10-13T10:01:50;8.77;;;4.57;;
28245;SDS011;15510;52.512;13.300;2023-10-13T10:04:22;8.07;;;4.43;;
28245;SDS011;15510;52.512;13.300;2023-10-13T10:06:54;9.00;;;4.32;;
28245;SDS011;15510;52.512;13.300;2023-10-13T10:09:28;5.40;;;4.57;;
28245;SDS011;15510;52.512;13.300;2023-10-13T10:17:39;8.13;;;4.70;;
28245;SDS011;15510;52.512;13.300;2023-10-13T10:20:07;5.93;;;4.15;;
28245;SDS011;15510;52.512;13.300;2023-10-13T10:22:58;9.10;;;4.65;;
28245;SDS011;15510;52.512;13.300;2023-10-13T10:25:30;8.80;;;4.32;;
28245;SDS011;15510;52.512;13.300;2023-10-13T10:28:08;7.70;;;4.38;;
28245;SDS011;15510;52.512;13.300;2023-10-13T10:30:35;7.88;;;4.28;;
28245;SDS011;15510;52.512;13.300;2023-10-13T10:33:04;5.63;;;4.63;;
28245;SDS011;15510;52.512;13.300;2023-10-13T10:35:47;7.28;;;4.18;;
28245;SDS011;15510;52.512;13.300;2023-10-13T10:38:24;7.88;;;4.28;;
28245;SDS011;15510;52.512;13.300;2023-10-13T10:40:58;5.57;;;4.40;;
28245;SDS011;15510;52.512;13.300;2023-10-13T10:46:14;7.78;;;4.35;;
28245;SDS011;15510;52.512;13.300;2023-10-13T10:48:43;7.95;;;4.30;;
28245;SDS011;15510;52.512;13.300;2023-10-13T10:51:10;10.38;;;4.53;;
28245;SDS011;15510;52.512;13.300;2023-10-13T10:54:00;8.85;;;3.97;;
28245;SDS011;15510;52.512;13.300;2023-10-13T10:56:55;6.32;;;3.88;;
28245;SDS011;15510;52.512;13.300;2023-10-13T10:59:24;6.68;;;4.32;;
28245;SDS011;15510;52.512;13.300;2023-10-13T11:01:50;4.63;;;3.72;;
28245;SDS011;15510;52.512;13.300;2023-10-13T11:04:17;7.22;;;4.45;;
28245;SDS011;15510;52.512;13.300;2023-10-13T11:09:14;5.45;;;4.20;;
28245;SDS011;15510;52.512;13.300;2023-10-13T11:11:53;7.07;;;4.43;;
28245;SDS011;15510;52.512;13.300;2023-10-13T11:14:25;7.10;;;4.43;;
28245;SDS011;15510;52.512;13.300;2023-10-13T11:16:53;5.40;;;4.03;;
28245;SDS011;15510;52.512;13.300;2023-10-13T11:19:21;5.15;;;3.95;;
28245;SDS011;15510;52.512;13.300;2023-10-13T11:21:58;8.10;;;4.10;;
28245;SDS011;15510;52.512;13.300;2023-10-13T11:24:41;7.53;;;4.28;;
28245;SDS011;15510;52.512;13.300;2023-10-13T11:27:16;6.63;;;4.50;;
28245;SDS011;15510;52.512;13.300;2023-10-13T11:30:02;4.57;;;3.85;;
28245;SDS011;15510;52.512;13.300;2023-10-13T11:32:37;8.38;;;4.78;;
28245;SDS011;15510;52.512;13.300;2023-10-13T11:35:09;9.00;;;4.53;;
28245;SDS011;15510;52.512;13.300;2023-10-13T11:37:50;6.43;;;4.55;;
28245;SDS011;15510;52.512;13.300;2023-10-13T11:40:29;5.55;;;4.07;;
28245;SDS011;15510;52.512;13.300;2023-10-13T11:43:40;8.13;;;4.07;;
28245;SDS011;15510;52.512;13.300;2023-10-13T11:46:07;6.38;;;3.75;;
28245;SDS011;15510;52.512;13.300;2023-10-13T11:48:36;7.70;;;4.15;;
28245;SDS011;15510;52.512;13.300;2023-10-13T11:51:11;10.00;;;4.45;;
28245;SDS011;15510;52.512;13.300;2023-10-13T11:53:49;4.45;;;3.60;;
28245;SDS011;15510;52.512;13.300;2023-10-13T11:56:19;4.80;;;3.75;;
28245;SDS011;15510;52.512;13.300;2023-10-13T11:58:49;7.97;;;3.80;;
28245;SDS011;15510;52.512;13.300;2023-10-13T12:01:16;7.70;;;4.07;;
28245;SDS011;15510;52.512;13.300;2023-10-13T12:03:45;5.75;;;3.78;;
28245;SDS011;15510;52.512;13.300;2023-10-13T12:06:34;7.15;;;4.32;;
28245;SDS011;15510;52.512;13.300;2023-10-13T12:09:14;5.75;;;4.10;;
28245;SDS011;15510;52.512;13.300;2023-10-13T12:11:40;8.63;;;4.30;;
28245;SDS011;15510;52.512;13.300;2023-10-13T12:14:13;7.32;;;3.63;;
28245;SDS011;15510;52.512;13.300;2023-10-13T12:16:46;6.22;;;3.78;;
28245;SDS011;15510;52.512;13.300;2023-10-13T12:19:19;4.88;;;3.75;;
28245;SDS011;15510;52.512;13.300;2023-10-13T12:21:53;7.07;;;3.60;;
28245;SDS011;15510;52.512;13.300;2023-10-13T12:24:30;5.60;;;3.78;;
28245;SDS011;15510;52.512;13.300;2023-10-13T12:27:08;5.32;;;3.47;;
28245;SDS011;15510;52.512;13.300;2023-10-13T12:30:00;10.88;;;5.20;;
28245;SDS011;15510;52.512;13.300;2023-10-13T12:32:33;6.07;;;3.30;;
28245;SDS011;15510;52.512;13.300;2023-10-13T12:34:59;6.80;;;4.03;;
28245;SDS011;15510;52.512;13.300;2023-10-13T12:37:33;6.18;;;3.90;;
28245;SDS011;15510;52.512;13.300;2023-10-13T12:40:15;5.90;;;3.70;;
28245;SDS011;15510;52.512;13.300;2023-10-13T12:43:01;7.60;;;3.70;;
28245;SDS011;15510;52.512;13.300;2023-10-13T12:45:47;6.68;;;3.55;;
28245;SDS011;15510;52.512;13.300;2023-10-13T12:48:35;6.90;;;3.40;;
28245;SDS011;15510;52.512;13.300;2023-10-13T12:51:23;8.25;;;3.80;;
28245;SDS011;15510;52.512;13.300;2023-10-13T12:54:05;5.78;;;4.07;;
28245;SDS011;15510;52.512;13.300;2023-10-13T12:56:47;9.50;;;3.80;;
28245;SDS011;15510;52.512;13.300;2023-10-13T12:59:13;10.27;;;3.53;;
28245;SDS011;15510;52.512;13.300;2023-10-13T13:01:39;4.97;;;2.58;;
28245;SDS011;15510;52.512;13.300;2023-10-13T13:04:11;11.75;;;3.85;;
28245;SDS011;15510;52.512;13.300;2023-10-13T13:06:46;7.53;;;3.47;;
28245;SDS011;15510;52.512;13.300;2023-10-13T13:09:16;9.75;;;3.58;;
28245;SDS011;15510;52.512;13.300;2023-10-13T13:11:51;10.50;;;3.42;;
28245;SDS011;15510;52.512;13.300;2023-10-13T13:14:22;9.07;;;3.50;;
28245;SDS011;15510;52.512;13.300;2023-10-13T13:16:57;11.48;;;3.88;;
28245;SDS011;15510;52.512;13.300;2023-10-13T13:19:32;9.57;;;3.13;;
28245;SDS011;15510;52.512;13.300;2023-10-13T13:22:05;5.55;;;3.15;;
28245;SDS011;15510;52.512;13.300;2023-10-13T13:24:40;8.27;;;3.42;;
28245;SDS011;15510;52.512;13.300;2023-10-13T13:27:12;7.65;;;3.20;;
28245;SDS011;15510;52.512;13.300;2023-10-13T13:29:48;5.88;;;2.92;;
28245;SDS011;15510;52.512;13.300;2023-10-13T13:32:14;6.45;;;3.50;;
28245;SDS011;15510;52.512;13.300;2023-10-13T13:34:49;9.00;;;3.60;;
28245;SDS011;15510;52.512;13.300;2023-10-13T13:37:33;6.78;;;3.17;;
28245;SDS011;15510;52.512;13.300;2023-10-13T13:40:04;9.35;;;3.50;;
28245;SDS011;15510;52.512;13.300;2023-10-13T13:42:44;6.82;;;3.50;;
28245;SDS011;15510;52.512;13.300;2023-10-13T13:48:09;7.30;;;3.30;;
28245;SDS011;15510;52.512;13.300;2023-10-13T13:50:40;5.63;;;3.03;;
28245;SDS011;15510;52.512;13.300;2023-10-13T13:53:06;7.78;;;3.45;;
28245;SDS011;15510;52.512;13.300;2023-10-13T13:55:36;8.15;;;4.15;;
28245;SDS011;15510;52.512;13.300;2023-10-13T13:58:05;8.05;;;3.83;;
28245;SDS011;15510;52.512;13.300;2023-10-13T14:00:36;7.50;;;3.38;;
28245;SDS011;15510;52.512;13.300;2023-10-13T14:03:13;6.07;;;3.75;;
28245;SDS011;15510;52.512;13.300;2023-10-13T14:05:59;7.20;;;3.08;;
28245;SDS011;15510;52.512;13.300;2023-10-13T14:08:25;5.65;;;3.45;;
28245;SDS011;15510;52.512;13.300;2023-10-13T14:10:53;10.77;;;3.67;;
28245;SDS011;15510;52.512;13.300;2023-10-13T14:13:37;9.00;;;2.95;;
28245;SDS011;15510;52.512;13.300;2023-10-13T14:16:21;8.65;;;3.40;;
28245;SDS011;15510;52.512;13.300;2023-10-13T14:18:51;12.82;;;3.53;;
28245;SDS011;15510;52.512;13.300;2023-10-13T14:21:17;6.70;;;3.15;;
28245;SDS011;15510;52.512;13.300;2023-10-13T14:23:49;6.50;;;2.80;;
28245;SDS011;15510;52.512;13.300;2023-10-13T14:26:19;8.07;;;3.92;;
28245;SDS011;15510;52.512;13.300;2023-10-13T14:28:49;9.32;;;3.55;;
28245;SDS011;15510;52.512;13.300;2023-10-13T14:31:34;7.85;;;3.15;;
28245;SDS011;15510;52.512;13.300;2023-10-13T14:34:02;11.52;;;4.28;;
28245;SDS011;15510;52.512;13.300;2023-10-13T14:36:28;7.60;;;3.58;;
28245;SDS011;15510;52.512;13.300;2023-10-13T14:39:04;8.90;;;3.10;;
28245;SDS011;15510;52.512;13.300;2023-10-13T14:41:37;10.35;;;3.42;;
28245;SDS011;15510;52.512;13.300;2023-10-13T14:44:08;7.80;;;3.40;;
28245;SDS011;15510;52.512;13.300;2023-10-13T14:46:34;12.75;;;4.00;;
28245;SDS011;15510;52.512;13.300;2023-10-13T14:49:06;7.85;;;3.10;;
28245;SDS011;15510;52.512;13.300;2023-10-13T14:51:35;8.32;;;3.40;;
28245;SDS011;15510;52.512;13.300;2023-10-13T14:54:04;6.22;;;3.20;;
28245;SDS011;15510;52.512;13.300;2023-10-13T14:56:30;7.43;;;3.72;;
28245;SDS011;15510;52.512;13.300;2023-10-13T14:58:58;11.68;;;4.57;;
28245;SDS011;15510;52.512;13.300;2023-10-13T15:01:24;5.78;;;3.72;;
28245;SDS011;15510;52.512;13.300;2023-10-13T15:03:52;11.50;;;3.60;;
28245;SDS011;15510;52.512;13.300;2023-10-13T15:06:25;9.98;;;3.10;;
28245;SDS011;15510;52.512;13.300;2023-10-13T15:08:54;6.28;;;3.55;;
28245;SDS011;15510;52.512;13.300;2023-10-13T15:11:21;10.65;;;3.28;;
28245;SDS011;15510;52.512;13.300;2023-10-13T15:13:55;5.10;;;2.97;;
28245;SDS011;15510;52.512;13.300;2023-10-13T15:16:22;11.00;;;3.33;;
28245;SDS011;15510;52.512;13.300;2023-10-13T15:18:50;9.95;;;3.80;;
28245;SDS011;15510;52.512;13.300;2023-10-13T15:24:02;10.30;;;4.70;;
28245;SDS011;15510;52.512;13.300;2023-10-13T15:26:30;10.20;;;3.70;;
28245;SDS011;15510;52.512;13.300;2023-10-13T15:28:57;8.82;;;3.50;;
28245;SDS011;15510;52.512;13.300;2023-10-13T15:31:26;8.60;;;3.40;;
28245;SDS011;15510;52.512;13.300;2023-10-13T15:34:03;9.57;;;3.50;;
28245;SDS011;15510;52.512;13.300;2023-10-13T15:36:35;7.88;;;4.80;;
28245;SDS011;15510;52.512;13.300;2023-10-13T15:39:06;7.85;;;4.05;;
28245;SDS011;15510;52.512;13.300;2023-10-13T15:41:40;9.07;;;3.90;;
28245;SDS011;15510;52.512;13.300;2023-10-13T15:44:10;6.90;;;3.63;;
28245;SDS011;15510;52.512;13.300;2023-10-13T15:46:38;6.25;;;3.22;;
28245;SDS011;15510;52.512;13.300;2023-10-13T15:49:05;9.95;;;4.05;;
28245;SDS011;15510;52.512;13.300;2023-10-13T15:51:34;9.88;;;3.90;;